createdAt,value
2022-08-03T00:01:49.131Z,98.69
2022-08-03T00:03:51.833Z,98.34
2022-08-03T00:06:03.956Z,99.88
2022-08-03T00:08:08.445Z,100.00
2022-08-03T00:10:11.538Z,99.41
2022-08-03T00:12:14.735Z,98.24
2022-08-03T00:14:17.725Z,97.30
2022-08-03T00:16:20.559Z,93.91
2022-08-03T00:18:26.034Z,94.84
2022-08-03T00:20:29.570Z,98.33
2022-08-03T00:22:32.221Z,97.70
2022-08-03T00:24:36.365Z,96.67
2022-08-03T00:26:39.130Z,97.41
2022-08-03T00:28:42.052Z,97.01
2022-08-03T00:30:44.954Z,97.06
2022-08-03T00:32:47.651Z,98.33
2022-08-03T00:34:57.697Z,99.70
2022-08-03T00:37:01.731Z,99.21
2022-08-03T00:39:05.021Z,99.37
2022-08-03T00:41:09.152Z,97.99
2022-08-03T00:43:12.001Z,97.93
2022-08-03T00:45:14.649Z,99.94
2022-08-03T00:47:17.333Z,100.00
2022-08-03T00:49:20.233Z,100.00
2022-08-03T00:51:23.533Z,100.00
2022-08-03T00:53:28.152Z,100.00
2022-08-03T00:55:31.029Z,100.00
2022-08-03T00:57:37.526Z,100.00
2022-08-03T00:59:40.474Z,100.00
2022-08-03T01:01:43.251Z,100.00
2022-08-03T01:03:46.051Z,100.00
2022-08-03T01:05:54.240Z,99.72
2022-08-03T01:08:04.829Z,100.00
2022-08-03T01:10:14.431Z,99.89
2022-08-03T01:12:26.288Z,100.00
2022-08-03T01:14:35.092Z,100.00
2022-08-03T01:16:53.332Z,100.00
2022-08-03T01:19:03.501Z,100.00
2022-08-03T01:21:13.460Z,100.00
2022-08-03T01:23:53.261Z,100.00
2022-08-03T01:26:14.928Z,100.00
2022-08-03T01:28:48.495Z,100.00
2022-08-03T01:30:57.474Z,100.00
2022-08-03T01:33:03.979Z,100.00
2022-08-03T01:35:11.673Z,100.00
2022-08-03T01:37:23.045Z,100.00
2022-08-03T01:39:28.143Z,100.00
2022-08-03T01:41:34.248Z,100.00
2022-08-03T01:44:28.606Z,100.00
2022-08-03T01:46:06.480Z,100.00
2022-08-03T01:48:10.762Z,100.00
2022-08-03T01:50:15.816Z,100.00
2022-08-03T01:52:22.576Z,100.00
2022-08-03T01:54:26.915Z,100.00
2022-08-03T01:56:32.375Z,100.00
2022-08-03T01:58:37.553Z,100.00
2022-08-03T02:00:41.957Z,100.00
2022-08-03T02:02:48.947Z,100.00
2022-08-03T02:04:55.331Z,100.00
2022-08-03T02:07:02.039Z,100.00
2022-08-03T02:09:07.705Z,100.00
2022-08-03T02:11:10.712Z,100.00
2022-08-03T02:13:15.211Z,100.00
2022-08-03T02:15:20.382Z,100.00
2022-08-03T02:17:38.552Z,100.00
2022-08-03T02:19:45.500Z,100.00
2022-08-03T02:21:56.982Z,100.00
2022-08-03T02:24:05.334Z,100.00
2022-08-03T02:26:11.529Z,100.00
2022-08-03T02:28:19.217Z,100.00
2022-08-03T02:30:25.515Z,100.00
2022-08-03T02:32:32.215Z,100.00
2022-08-03T02:34:37.151Z,100.00
2022-08-03T02:36:43.871Z,100.00
2022-08-03T02:38:50.331Z,100.00
2022-08-03T02:40:57.428Z,100.00
2022-08-03T02:43:05.029Z,100.00
2022-08-03T02:45:12.356Z,100.00
2022-08-03T02:47:16.583Z,100.00
2022-08-03T02:49:41.442Z,100.00
2022-08-03T02:51:45.996Z,100.00
2022-08-03T02:53:50.084Z,100.00
2022-08-03T02:55:54.729Z,100.00
2022-08-03T02:58:01.289Z,100.00
2022-08-03T03:00:06.611Z,100.00
2022-08-03T03:02:11.032Z,100.00
2022-08-03T03:04:14.974Z,100.00
2022-08-03T03:06:18.415Z,100.00
2022-08-03T03:08:25.996Z,100.00
2022-08-03T03:10:30.493Z,100.00
2022-08-03T03:12:34.607Z,100.00
2022-08-03T03:14:38.469Z,100.00
2022-08-03T03:16:42.943Z,100.00
2022-08-03T03:18:47.443Z,100.00
2022-08-03T03:20:50.888Z,100.00
2022-08-03T03:22:54.419Z,100.00
2022-08-03T03:24:58.795Z,100.00
2022-08-03T03:27:02.127Z,100.00
2022-08-03T03:29:05.671Z,100.00
2022-08-03T03:31:09.065Z,100.00
2022-08-03T03:33:11.969Z,100.00
2022-08-03T03:35:15.305Z,100.00
2022-08-03T03:37:18.055Z,100.00
2022-08-03T03:39:20.702Z,100.00
2022-08-03T03:41:25.223Z,100.00
2022-08-03T03:43:29.476Z,100.00
2022-08-03T03:45:32.762Z,100.00
2022-08-03T03:47:36.041Z,100.00
2022-08-03T03:49:38.973Z,100.00
2022-08-03T03:51:41.770Z,100.00
2022-08-03T03:53:55.896Z,100.00
2022-08-03T03:56:02.901Z,100.00
2022-08-03T03:58:07.776Z,100.00
2022-08-03T04:00:11.673Z,100.00
2022-08-03T04:02:14.581Z,100.00
2022-08-03T04:04:34.997Z,100.00
2022-08-03T04:06:55.403Z,100.00
2022-08-03T04:09:15.974Z,100.00
2022-08-03T04:11:29.186Z,100.00
2022-08-03T04:13:38.667Z,100.00
2022-08-03T04:15:42.247Z,100.00
2022-08-03T04:17:46.187Z,100.00
2022-08-03T04:19:51.487Z,100.00
2022-08-03T04:21:57.470Z,100.00
2022-08-03T04:24:05.177Z,100.00
2022-08-03T04:26:10.700Z,100.00
2022-08-03T04:28:29.587Z,100.00
2022-08-03T04:30:38.590Z,100.00
2022-08-03T04:32:45.929Z,100.00
2022-08-03T04:34:48.956Z,100.00
2022-08-03T04:36:57.584Z,100.00
2022-08-03T04:39:03.393Z,100.00
2022-08-03T04:41:06.619Z,100.00
2022-08-03T04:43:10.968Z,100.00
2022-08-03T04:45:15.935Z,100.00
2022-08-03T04:47:21.017Z,100.00
2022-08-03T04:49:24.354Z,100.00
2022-08-03T04:51:27.405Z,100.00
2022-08-03T04:53:30.082Z,100.00
2022-08-03T04:55:34.949Z,100.00
2022-08-03T04:57:37.647Z,100.00
2022-08-03T04:59:40.955Z,100.00
2022-08-03T05:01:43.731Z,100.00
2022-08-03T05:03:47.917Z,100.00
2022-08-03T05:05:50.934Z,100.00
2022-08-03T05:07:53.670Z,100.00
2022-08-03T05:10:01.518Z,100.00
2022-08-03T05:12:06.892Z,100.00
2022-08-03T05:14:09.641Z,100.00
2022-08-03T05:16:13.704Z,100.00
2022-08-03T05:18:16.737Z,100.00
2022-08-03T05:20:20.957Z,100.00
2022-08-03T05:22:24.310Z,100.00
2022-08-03T05:24:27.253Z,100.00
2022-08-03T05:26:30.171Z,100.00
2022-08-03T05:28:32.878Z,100.00
2022-08-03T05:30:35.542Z,100.00
2022-08-03T05:32:38.231Z,100.00
2022-08-03T05:34:40.940Z,100.00
2022-08-03T05:36:44.947Z,100.00
2022-08-03T05:38:47.739Z,100.00
2022-08-03T05:40:57.541Z,100.00
2022-08-03T05:43:13.193Z,100.00
2022-08-03T05:45:17.617Z,100.00
2022-08-03T05:47:20.384Z,100.00
2022-08-03T05:49:23.070Z,100.00
2022-08-03T05:51:25.756Z,100.00
2022-08-03T05:53:29.745Z,100.00
2022-08-03T05:55:32.747Z,100.00
2022-08-03T05:57:35.522Z,100.00
2022-08-03T05:59:39.626Z,99.96
2022-08-03T06:01:57.373Z,99.43
2022-08-03T06:04:00.562Z,98.22
2022-08-03T06:06:03.301Z,97.01
2022-08-03T06:08:06.604Z,96.32
2022-08-03T06:10:37.535Z,94.18
2022-08-03T06:12:35.955Z,93.82
2022-08-03T06:14:38.652Z,92.91
2022-08-03T06:16:41.431Z,90.29
2022-08-03T06:18:44.060Z,86.75
2022-08-03T06:20:47.175Z,83.83
2022-08-03T06:23:00.437Z,82.12
2022-08-03T06:25:07.511Z,77.56
2022-08-03T06:27:14.214Z,76.60
2022-08-03T06:29:16.948Z,73.14
2022-08-03T06:31:19.678Z,74.17
2022-08-03T06:33:22.525Z,71.68
2022-08-03T06:35:25.270Z,69.31
2022-08-03T06:37:28.783Z,68.28
2022-08-03T06:39:31.454Z,69.13
2022-08-03T06:41:37.244Z,69.12
2022-08-03T06:44:03.553Z,67.04
2022-08-03T06:46:06.274Z,68.37
2022-08-03T06:48:10.928Z,69.53
2022-08-03T06:50:16.829Z,68.49
2022-08-03T06:52:38.212Z,68.88
2022-08-03T06:54:43.376Z,68.42
2022-08-03T06:56:46.067Z,67.03
2022-08-03T06:58:50.140Z,61.98
2022-08-03T07:00:53.110Z,61.67
2022-08-03T07:02:58.257Z,60.55
2022-08-03T07:05:01.253Z,56.08
2022-08-03T07:07:04.072Z,57.32
2022-08-03T07:09:06.780Z,61.26
2022-08-03T07:11:09.487Z,59.88
2022-08-03T07:13:12.873Z,56.94
2022-08-03T07:15:20.517Z,54.17
2022-08-03T07:17:41.022Z,52.06
2022-08-03T07:19:43.716Z,49.91
2022-08-03T07:21:47.317Z,50.00
2022-08-03T07:23:50.131Z,48.02
2022-08-03T07:25:53.099Z,48.04
2022-08-03T07:27:55.760Z,49.73
2022-08-03T07:29:59.719Z,48.05
2022-08-03T07:32:04.830Z,49.40
2022-08-03T07:34:07.525Z,51.69
2022-08-03T07:36:10.281Z,50.18
2022-08-03T07:38:13.004Z,47.46
2022-08-03T07:40:17.657Z,49.36
2022-08-03T07:42:20.487Z,48.96
2022-08-03T07:44:23.263Z,51.32
2022-08-03T07:46:26.717Z,51.13
2022-08-03T07:48:30.954Z,49.91
2022-08-03T07:50:33.649Z,49.00
2022-08-03T07:52:52.058Z,50.42
2022-08-03T07:54:54.866Z,47.31
2022-08-03T07:56:57.613Z,44.55
2022-08-03T07:59:02.018Z,40.65
2022-08-03T08:01:04.765Z,39.37
2022-08-03T08:03:07.636Z,44.23
2022-08-03T08:05:12.549Z,43.63
2022-08-03T08:07:15.277Z,42.54
2022-08-03T08:09:18.221Z,44.33
2022-08-03T08:11:22.194Z,46.52
2022-08-03T08:13:25.496Z,49.71
2022-08-03T08:15:28.641Z,46.76
2022-08-03T08:17:31.493Z,46.59
2022-08-03T08:19:36.802Z,45.28
2022-08-03T08:21:53.884Z,43.29
2022-08-03T08:24:10.942Z,47.13
2022-08-03T08:26:21.094Z,41.98
2022-08-03T08:28:32.151Z,38.75
2022-08-03T08:30:36.595Z,43.36
2022-08-03T08:32:39.336Z,40.90
2022-08-03T08:34:42.004Z,37.07
2022-08-03T08:36:46.080Z,43.05
2022-08-03T08:38:49.955Z,45.23
2022-08-03T08:40:52.691Z,43.72
2022-08-03T08:42:58.416Z,42.54
2022-08-03T08:45:02.320Z,41.99
2022-08-03T08:47:05.188Z,40.52
2022-08-03T08:49:10.654Z,42.52
2022-08-03T08:51:14.411Z,42.21
2022-08-03T08:53:21.780Z,39.94
2022-08-03T08:55:58.897Z,42.98
2022-08-03T08:57:59.996Z,38.44
2022-08-03T09:00:03.189Z,37.60
2022-08-03T09:02:06.038Z,37.21
2022-08-03T09:04:09.546Z,39.34
2022-08-03T09:06:12.291Z,41.20
2022-08-03T09:08:15.623Z,42.29
2022-08-03T09:10:21.961Z,38.46
2022-08-03T09:12:42.171Z,37.83
2022-08-03T09:15:07.242Z,37.46
2022-08-03T09:17:10.210Z,37.71
2022-08-03T09:19:20.159Z,36.37
2022-08-03T09:21:31.801Z,35.09
2022-08-03T09:24:01.469Z,37.68
2022-08-03T09:26:07.443Z,38.02
2022-08-03T09:28:12.421Z,38.81
2022-08-03T09:30:33.300Z,38.40
2022-08-03T09:32:38.427Z,38.44
2022-08-03T09:34:41.184Z,35.20
2022-08-03T09:36:45.797Z,36.56
2022-08-03T09:39:04.469Z,36.00
2022-08-03T09:41:19.647Z,36.50
2022-08-03T09:43:23.597Z,35.70
2022-08-03T09:45:30.019Z,35.78
2022-08-03T09:47:36.244Z,35.69
2022-08-03T09:49:41.204Z,34.68
2022-08-03T09:52:33.053Z,33.82
2022-08-03T09:54:15.090Z,35.98
2022-08-03T09:56:35.605Z,33.95
2022-08-03T09:58:47.281Z,33.31
2022-08-03T10:00:58.854Z,34.80
2022-08-03T10:03:05.781Z,36.57
2022-08-03T10:05:10.707Z,34.62
2022-08-03T10:07:24.462Z,35.26
2022-08-03T10:09:27.237Z,33.89
2022-08-03T10:11:36.205Z,33.06
2022-08-03T10:13:43.834Z,35.19
2022-08-03T10:16:22.644Z,34.55
2022-08-03T10:18:10.083Z,33.44
2022-08-03T10:20:13.345Z,32.78
2022-08-03T10:22:19.861Z,31.91
2022-08-03T10:24:27.225Z,32.22
2022-08-03T10:26:35.077Z,32.77
2022-08-03T10:28:45.449Z,32.73
2022-08-03T10:30:51.576Z,35.99
2022-08-03T10:33:02.293Z,35.79
2022-08-03T10:35:20.658Z,35.20
2022-08-03T10:37:26.140Z,38.90
2022-08-03T10:39:30.460Z,36.13
2022-08-03T10:41:38.682Z,36.82
2022-08-03T10:43:48.985Z,38.31
2022-08-03T10:45:52.737Z,37.64
2022-08-03T10:47:57.196Z,37.50
2022-08-03T10:50:01.063Z,37.47
2022-08-03T10:52:12.859Z,37.28
2022-08-03T10:55:03.086Z,37.92
2022-08-03T10:57:27.571Z,40.28
2022-08-03T10:59:58.937Z,38.95
2022-08-03T11:02:01.709Z,39.65
2022-08-03T11:04:17.206Z,39.97
2022-08-03T11:06:21.555Z,40.34
2022-08-03T11:08:35.925Z,40.49
2022-08-03T11:10:39.056Z,39.23
2022-08-03T11:12:44.248Z,40.31
2022-08-03T11:14:48.715Z,39.93
2022-08-03T11:17:06.971Z,39.21
2022-08-03T11:19:11.879Z,38.69
2022-08-03T11:21:14.634Z,37.47
2022-08-03T11:23:19.231Z,37.96
2022-08-03T11:26:10.604Z,38.80
2022-08-03T11:28:30.565Z,40.59
2022-08-03T11:30:33.492Z,38.88
2022-08-03T11:32:58.238Z,40.09
2022-08-03T11:35:11.137Z,40.39
2022-08-03T11:37:28.543Z,40.13
2022-08-03T11:39:43.471Z,40.19
2022-08-03T11:41:46.341Z,40.35
2022-08-03T11:43:50.559Z,40.15
2022-08-03T11:45:58.593Z,39.54
2022-08-03T11:48:13.854Z,38.22
2022-08-03T11:50:17.181Z,39.22
2022-08-03T11:52:27.555Z,39.03
2022-08-03T11:54:32.377Z,38.77
2022-08-03T11:56:46.136Z,38.97
2022-08-03T11:59:01.386Z,38.34
2022-08-03T12:01:21.273Z,39.00
2022-08-03T12:03:25.867Z,38.99
2022-08-03T12:05:40.197Z,38.61
2022-08-03T12:08:03.951Z,38.54
2022-08-03T12:10:08.431Z,38.79
2022-08-03T12:12:11.753Z,38.94
2022-08-03T12:14:49.417Z,37.25
2022-08-03T12:16:47.813Z,40.08
2022-08-03T12:18:56.318Z,37.37
2022-08-03T12:21:06.978Z,39.24
2022-08-03T12:23:10.786Z,38.28
2022-08-03T12:25:38.460Z,38.14
2022-08-03T12:27:42.332Z,38.61
2022-08-03T12:29:58.828Z,38.62
2022-08-03T12:32:02.289Z,38.83
2022-08-03T12:34:07.127Z,38.94
2022-08-03T12:36:11.300Z,39.13
2022-08-03T12:38:14.436Z,37.97
2022-08-03T12:40:28.156Z,38.31
2022-08-03T12:42:31.476Z,38.31
2022-08-03T12:44:35.796Z,37.63
2022-08-03T12:46:47.404Z,39.33
2022-08-03T12:49:06.732Z,39.02
2022-08-03T12:51:10.670Z,38.85
2022-08-03T12:53:13.360Z,38.17
2022-08-03T12:55:20.926Z,38.03
2022-08-03T12:57:24.004Z,38.20
2022-08-03T12:59:32.280Z,38.36
2022-08-03T13:01:39.268Z,39.64
2022-08-03T13:03:57.716Z,39.01
2022-08-03T13:06:02.804Z,38.99
2022-08-03T13:08:05.946Z,39.16
2022-08-03T13:10:09.656Z,38.18
2022-08-03T13:12:15.670Z,38.30
2022-08-03T13:14:20.379Z,39.09
2022-08-03T13:16:24.479Z,39.31
2022-08-03T13:18:28.508Z,39.54
2022-08-03T13:20:31.369Z,39.99
2022-08-03T13:22:34.553Z,40.10
2022-08-03T13:24:37.367Z,39.44
2022-08-03T13:26:40.149Z,39.05
2022-08-03T13:28:43.048Z,37.37
2022-08-03T13:30:45.786Z,40.03
2022-08-03T13:32:48.518Z,39.28
2022-08-03T13:34:52.675Z,39.30
2022-08-03T13:37:10.883Z,38.49
2022-08-03T13:39:14.020Z,37.93
2022-08-03T13:41:17.031Z,37.69
2022-08-03T13:43:20.476Z,38.54
2022-08-03T13:45:24.260Z,38.50
2022-08-03T13:47:27.321Z,38.54
2022-08-03T13:49:30.076Z,39.55
2022-08-03T13:51:34.632Z,39.31
2022-08-03T13:53:37.330Z,38.92
2022-08-03T13:55:40.231Z,39.36
2022-08-03T13:58:12.106Z,39.55
2022-08-03T14:00:07.915Z,39.33
2022-08-03T14:02:10.737Z,39.58
2022-08-03T14:04:17.536Z,38.16
2022-08-03T14:06:25.885Z,37.69
2022-08-03T14:08:30.363Z,38.85
2022-08-03T14:10:33.780Z,37.53
2022-08-03T14:12:36.473Z,38.15
2022-08-03T14:14:39.306Z,37.75
2022-08-03T14:16:43.149Z,37.85
2022-08-03T14:18:47.883Z,37.78
2022-08-03T14:20:54.378Z,38.26
2022-08-03T14:22:59.080Z,37.55
2022-08-03T14:25:03.174Z,38.29
2022-08-03T14:27:09.365Z,39.20
2022-08-03T14:29:12.195Z,37.75
2022-08-03T14:32:09.087Z,37.50
2022-08-03T14:33:37.648Z,37.96
2022-08-03T14:35:40.414Z,37.84
2022-08-03T14:37:43.196Z,39.16
2022-08-03T14:40:02.349Z,39.15
2022-08-03T14:42:06.969Z,39.01
2022-08-03T14:44:09.903Z,38.66
2022-08-03T14:46:12.792Z,38.83
2022-08-03T14:50:33.284Z,39.48
2022-08-03T14:50:43.124Z,39.64
2022-08-03T14:52:48.418Z,39.26
2022-08-03T14:54:51.160Z,39.50
2022-08-03T14:56:53.833Z,38.97
2022-08-03T14:58:57.991Z,38.89
2022-08-03T15:01:00.671Z,38.26
2022-08-03T15:03:03.695Z,38.79
2022-08-03T15:05:07.605Z,39.31
2022-08-03T15:07:10.528Z,39.70
2022-08-03T15:09:22.593Z,39.17
2022-08-03T15:11:26.115Z,39.96
2022-08-03T15:13:28.752Z,38.08
2022-08-03T15:15:32.815Z,38.33
2022-08-03T15:17:35.725Z,38.80
2022-08-03T15:20:02.236Z,38.20
2022-08-03T15:22:02.226Z,38.53
2022-08-03T15:24:05.519Z,38.07
2022-08-03T15:26:32.398Z,38.21
2022-08-03T15:28:31.069Z,38.90
2022-08-03T15:30:36.886Z,38.44
2022-08-03T15:32:39.672Z,38.68
2022-08-03T15:34:42.548Z,38.71
2022-08-03T15:36:53.649Z,38.45
2022-08-03T15:38:56.433Z,38.40
2022-08-03T15:40:59.312Z,37.91
2022-08-03T15:43:02.538Z,38.82
2022-08-03T15:45:06.106Z,39.62
2022-08-03T15:47:10.356Z,38.06
2022-08-03T15:49:13.710Z,38.69
2022-08-03T15:51:16.496Z,38.96
2022-08-03T15:53:19.290Z,37.44
2022-08-03T15:55:21.967Z,38.03
2022-08-03T15:57:25.090Z,37.62
2022-08-03T15:59:27.767Z,37.39
2022-08-03T16:01:31.517Z,37.27
2022-08-03T16:03:36.191Z,38.33
2022-08-03T16:05:39.386Z,37.86
2022-08-03T16:08:03.932Z,38.04
2022-08-03T16:10:08.587Z,37.42
2022-08-03T16:12:14.579Z,37.81
2022-08-03T16:14:34.381Z,37.76
2022-08-03T16:16:40.982Z,37.55
2022-08-03T16:18:45.126Z,37.79
2022-08-03T16:20:48.332Z,38.42
2022-08-03T16:22:51.176Z,38.02
2022-08-03T16:24:54.793Z,37.72
2022-08-03T16:26:57.840Z,38.50
2022-08-03T16:29:03.384Z,37.45
2022-08-03T16:31:08.964Z,38.53
2022-08-03T16:33:17.201Z,38.14
2022-08-03T16:35:21.843Z,36.16
2022-08-03T16:37:39.979Z,36.56
2022-08-03T16:39:42.689Z,37.24
2022-08-03T16:41:53.898Z,38.17
2022-08-03T16:44:06.688Z,38.00
2022-08-03T16:46:12.693Z,37.34
2022-08-03T16:48:16.066Z,37.40
2022-08-03T16:50:20.044Z,38.00
2022-08-03T16:52:24.755Z,38.97
2022-08-03T16:54:28.040Z,37.48
2022-08-03T16:56:32.153Z,38.12
2022-08-03T16:58:42.075Z,37.89
2022-08-03T17:00:46.409Z,38.57
2022-08-03T17:02:52.904Z,38.23
2022-08-03T17:04:57.980Z,38.34
2022-08-03T17:07:03.021Z,38.66
2022-08-03T17:09:10.030Z,39.33
2022-08-03T17:11:13.341Z,39.74
2022-08-03T17:13:22.576Z,40.47
2022-08-03T17:15:51.709Z,40.44
2022-08-03T17:18:02.494Z,40.93
2022-08-03T17:20:10.331Z,40.56
2022-08-03T17:22:15.845Z,41.02
2022-08-03T17:24:27.938Z,41.01
2022-08-03T17:26:32.872Z,41.64
2022-08-03T17:28:50.203Z,40.97
2022-08-03T17:31:23.029Z,40.00
2022-08-03T17:33:35.591Z,41.27
2022-08-03T17:35:38.754Z,40.61
2022-08-03T17:37:58.363Z,41.04
2022-08-03T17:40:08.610Z,40.93
2022-08-03T17:42:26.857Z,41.48
2022-08-03T17:44:37.630Z,41.53
2022-08-03T17:46:46.938Z,42.14
2022-08-03T17:48:49.904Z,41.99
2022-08-03T17:50:56.527Z,42.45
2022-08-03T17:53:07.702Z,42.57
2022-08-03T17:55:56.877Z,43.09
2022-08-03T17:58:02.750Z,42.94
2022-08-03T18:00:22.936Z,42.75
2022-08-03T18:02:55.272Z,42.77
2022-08-03T18:05:16.305Z,44.34
2022-08-03T18:07:41.496Z,43.94
2022-08-03T18:12:17.716Z,43.60
2022-08-03T18:14:30.366Z,44.30
2022-08-03T18:16:38.307Z,47.61
2022-08-03T18:18:43.504Z,44.41
2022-08-03T18:20:48.515Z,44.07
2022-08-03T18:22:51.803Z,46.66
2022-08-03T18:24:56.934Z,44.81
2022-08-03T18:27:02.405Z,44.34
2022-08-03T18:29:08.255Z,44.28
2022-08-03T18:31:59.540Z,47.06
2022-08-03T18:34:16.860Z,46.43
2022-08-03T18:36:04.125Z,45.59
2022-08-03T18:38:10.231Z,44.99
2022-08-03T18:40:13.709Z,47.51
2022-08-03T18:42:26.174Z,48.10
2022-08-03T18:44:45.570Z,45.97
2022-08-03T18:47:07.101Z,48.14
2022-08-03T18:49:29.774Z,46.80
2022-08-03T18:51:43.194Z,47.20
2022-08-03T18:56:24.756Z,47.34
2022-08-03T18:58:36.349Z,49.08
2022-08-03T19:00:55.035Z,50.35
2022-08-03T19:03:05.155Z,49.74
2022-08-03T19:05:10.115Z,46.84
2022-08-03T19:07:25.098Z,46.67
2022-08-03T19:09:41.579Z,46.32
2022-08-03T19:12:12.504Z,47.68
2022-08-03T19:14:12.614Z,46.04
2022-08-03T19:16:22.722Z,46.00
2022-08-03T19:18:28.428Z,47.37
2022-08-03T19:20:32.019Z,46.51
2022-08-03T19:22:35.179Z,46.32
2022-08-03T19:24:40.224Z,46.30
2022-08-03T19:26:43.069Z,46.13
2022-08-03T19:28:54.264Z,47.87
2022-08-03T19:31:02.580Z,48.69
2022-08-03T19:33:12.555Z,47.64
2022-08-03T19:35:19.001Z,47.98
2022-08-03T19:37:40.062Z,47.01
2022-08-03T19:39:44.296Z,50.70
2022-08-03T19:42:22.942Z,46.26
2022-08-03T19:44:31.463Z,46.53
2022-08-03T19:46:42.836Z,47.16
2022-08-03T19:48:55.317Z,46.77
2022-08-03T19:50:59.160Z,47.28
2022-08-03T19:53:06.084Z,46.91
2022-08-03T19:55:17.166Z,46.78
2022-08-03T19:57:23.505Z,47.72
2022-08-03T19:59:27.435Z,47.53
2022-08-03T20:01:30.600Z,47.74
2022-08-03T20:03:54.539Z,47.98
2022-08-03T20:05:58.083Z,48.44
2022-08-03T20:08:04.352Z,48.11
2022-08-03T20:10:08.876Z,48.64
2022-08-03T20:12:11.863Z,49.00
2022-08-03T20:14:26.182Z,49.04
2022-08-03T20:16:29.051Z,48.99
2022-08-03T20:18:35.952Z,48.79
2022-08-03T20:20:43.306Z,48.43
2022-08-03T20:22:52.581Z,48.48
2022-08-03T20:24:58.467Z,48.60
2022-08-03T20:27:03.629Z,48.12
2022-08-03T20:29:12.628Z,47.93
2022-08-03T20:31:15.357Z,47.64
2022-08-03T20:33:19.446Z,48.12
2022-08-03T20:35:30.305Z,48.71
2022-08-03T20:37:35.587Z,48.16
2022-08-03T20:39:40.722Z,48.37
2022-08-03T20:41:51.179Z,48.92
2022-08-03T20:43:54.041Z,48.90
2022-08-03T20:46:01.243Z,49.51
2022-08-03T20:48:22.014Z,50.81
2022-08-03T20:50:25.296Z,51.71
2022-08-03T20:52:28.807Z,51.63
2022-08-03T20:54:33.576Z,51.85
2022-08-03T20:56:37.024Z,52.40
2022-08-03T20:58:41.553Z,50.12
2022-08-03T21:00:44.741Z,52.17
2022-08-03T21:02:47.438Z,50.90
2022-08-03T21:04:50.196Z,50.45
2022-08-03T21:07:00.592Z,51.67
2022-08-03T21:09:06.817Z,50.63
2022-08-03T21:11:18.724Z,51.28
2022-08-03T21:13:04.990Z,45.63
2022-08-03T21:13:08.338Z,49.39
2022-08-03T21:13:25.656Z,51.25
2022-08-03T21:16:06.615Z,50.27
2022-08-03T21:17:55.372Z,51.28
2022-08-03T21:20:03.037Z,51.26
2022-08-03T21:22:09.232Z,52.48
2022-08-03T21:24:14.054Z,52.60
2022-08-03T21:26:19.730Z,53.23
2022-08-03T21:28:27.395Z,52.72
2022-08-03T21:30:31.496Z,53.63
2022-08-03T21:32:34.711Z,54.05
2022-08-03T21:34:37.458Z,54.71
2022-08-03T21:36:40.183Z,55.88
2022-08-03T21:38:43.708Z,53.40
2022-08-03T21:40:51.693Z,53.72
2022-08-03T21:42:55.773Z,54.38
2022-08-03T21:44:58.592Z,54.78
2022-08-03T21:47:03.246Z,54.70
2022-08-03T21:50:02.688Z,54.34
2022-08-03T21:51:33.764Z,54.60
2022-08-03T21:54:02.943Z,54.94
2022-08-03T21:56:06.399Z,55.69
2022-08-03T21:58:15.033Z,56.19
2022-08-03T22:00:19.473Z,56.29
2022-08-03T22:02:25.572Z,56.18
2022-08-03T22:04:50.375Z,58.39
2022-08-03T22:06:52.126Z,57.91
2022-08-03T22:08:54.930Z,58.07
2022-08-03T22:10:57.992Z,57.99
2022-08-03T22:13:07.338Z,56.75
2022-08-03T22:15:14.668Z,56.40
2022-08-03T22:17:53.425Z,57.30
2022-08-03T22:19:42.239Z,60.75
2022-08-03T22:21:49.317Z,61.70
2022-08-03T22:23:53.976Z,58.80
2022-08-03T22:25:58.248Z,58.97
2022-08-03T22:28:06.000Z,59.35
2022-08-03T22:30:13.520Z,60.58
2022-08-03T22:32:16.302Z,60.27
2022-08-03T22:34:26.492Z,59.97
2022-08-03T22:36:30.680Z,62.04
2022-08-03T22:38:34.249Z,63.02
2022-08-03T22:40:38.269Z,64.45
2022-08-03T22:42:43.072Z,62.69
2022-08-03T22:44:47.278Z,60.95
2022-08-03T22:46:51.618Z,62.11
2022-08-03T22:48:54.426Z,62.35
2022-08-03T22:50:58.622Z,62.81
2022-08-03T22:53:01.735Z,63.21
2022-08-03T22:55:07.286Z,60.70
2022-08-03T22:57:10.249Z,60.41
2022-08-03T22:59:40.599Z,59.13
2022-08-03T23:01:43.170Z,62.25
2022-08-03T23:03:59.205Z,63.43
2022-08-03T23:06:03.793Z,64.65
2022-08-03T23:08:09.844Z,66.19
2022-08-03T23:10:14.587Z,62.43
2022-08-03T23:12:20.286Z,59.83
2022-08-03T23:14:24.118Z,63.16
2022-08-03T23:16:29.712Z,60.63
2022-08-03T23:18:37.292Z,61.28
2022-08-03T23:20:41.722Z,60.31
2022-08-03T23:22:48.468Z,61.30
2022-08-03T23:24:54.726Z,65.06
2022-08-03T23:26:58.038Z,61.99
2022-08-03T23:29:02.364Z,61.60
2022-08-03T23:31:08.349Z,61.63
2022-08-03T23:33:13.167Z,61.95
2022-08-03T23:36:18.818Z,62.04
2022-08-03T23:38:10.805Z,64.32
2022-08-03T23:40:24.238Z,64.37
2022-08-03T23:42:28.362Z,66.34
2022-08-03T23:44:32.388Z,66.75
2022-08-03T23:48:39.450Z,68.55
2022-08-03T23:50:46.693Z,66.53
2022-08-03T23:53:01.376Z,68.15
2022-08-03T23:55:20.529Z,67.96
2022-08-03T23:57:33.732Z,69.54
2022-08-03T23:59:49.058Z,69.24
